sensor_id;sensor_type;location;lat;lon;timestamp;temperature;humidity
9810;DHT22;4944;52.514;13.192;2023-06-26T00:00:05;22.50;99.90
9810;DHT22;4944;52.514;13.192;2023-06-26T00:02:33;22.50;99.90
9810;DHT22;4944;52.514;13.192;2023-06-26T00:05:00;22.40;99.90
9810;DHT22;4944;52.514;13.192;2023-06-26T00:07:28;22.40;99.90
9810;DHT22;4944;52.514;13.192;2023-06-26T00:09:56;22.40;99.90
9810;DHT22;4944;52.514;13.192;2023-06-26T00:12:25;22.30;99.90
9810;DHT22;4944;52.514;13.192;2023-06-26T00:14:52;22.40;99.90
9810;DHT22;4944;52.514;13.192;2023-06-26T00:17:20;22.30;99.90
9810;DHT22;4944;52.514;13.192;2023-06-26T00:19:47;22.30;99.90
9810;DHT22;4944;52.514;13.192;2023-06-26T00:22:14;22.30;99.90
9810;DHT22;4944;52.514;13.192;2023-06-26T00:24:41;22.30;99.90
9810;DHT22;4944;52.514;13.192;2023-06-26T00:27:08;22.30;99.90
9810;DHT22;4944;52.514;13.192;2023-06-26T00:29:36;22.30;99.90
9810;DHT22;4944;52.514;13.192;2023-06-26T00:32:04;22.30;99.90
9810;DHT22;4944;52.514;13.192;2023-06-26T00:34:31;22.30;99.90
9810;DHT22;4944;52.514;13.192;2023-06-26T00:36:58;22.30;99.90
9810;DHT22;4944;52.514;13.192;2023-06-26T00:39:25;22.20;99.90
9810;DHT22;4944;52.514;13.192;2023-06-26T00:41:52;22.30;99.90
9810;DHT22;4944;52.514;13.192;2023-06-26T00:44:20;22.20;99.90
9810;DHT22;4944;52.514;13.192;2023-06-26T00:46:48;22.20;99.90
9810;DHT22;4944;52.514;13.192;2023-06-26T00:49:15;22.20;99.90
9810;DHT22;4944;52.514;13.192;2023-06-26T00:51:43;22.20;99.90
9810;DHT22;4944;52.514;13.192;2023-06-26T00:54:13;22.10;99.90
9810;DHT22;4944;52.514;13.192;2023-06-26T00:56:45;22.20;99.90
9810;DHT22;4944;52.514;13.192;2023-06-26T00:59:12;22.20;99.90
9810;DHT22;4944;52.514;13.192;2023-06-26T01:01:39;22.20;99.90
9810;DHT22;4944;52.514;13.192;2023-06-26T01:04:07;22.20;99.90
9810;DHT22;4944;52.514;13.192;2023-06-26T01:06:44;22.10;99.90
9810;DHT22;4944;52.514;13.192;2023-06-26T01:09:16;22.10;99.90
9810;DHT22;4944;52.514;13.192;2023-06-26T01:11:43;22.10;99.90
9810;DHT22;4944;52.514;13.192;2023-06-26T01:14:10;22.10;99.90
9810;DHT22;4944;52.514;13.192;2023-06-26T01:16:38;22.00;99.90
9810;DHT22;4944;52.514;13.192;2023-06-26T01:19:10;22.00;99.90
9810;DHT22;4944;52.514;13.192;2023-06-26T01:21:42;22.00;99.90
9810;DHT22;4944;52.514;13.192;2023-06-26T01:24:15;22.00;99.90
9810;DHT22;4944;52.514;13.192;2023-06-26T01:26:49;21.90;99.90
9810;DHT22;4944;52.514;13.192;2023-06-26T01:29:19;21.90;99.90
9810;DHT22;4944;52.514;13.192;2023-06-26T01:31:49;21.90;99.90
9810;DHT22;4944;52.514;13.192;2023-06-26T01:34:17;21.90;99.90
9810;DHT22;4944;52.514;13.192;2023-06-26T01:36:45;21.90;99.90
9810;DHT22;4944;52.514;13.192;2023-06-26T01:39:18;21.90;99.90
9810;DHT22;4944;52.514;13.192;2023-06-26T01:41:46;21.80;99.90
9810;DHT22;4944;52.514;13.192;2023-06-26T01:44:24;21.80;99.90
9810;DHT22;4944;52.514;13.192;2023-06-26T01:46:59;21.80;99.90
9810;DHT22;4944;52.514;13.192;2023-06-26T01:49:39;21.80;99.90
9810;DHT22;4944;52.514;13.192;2023-06-26T01:52:14;21.80;99.90
9810;DHT22;4944;52.514;13.192;2023-06-26T01:54:49;21.80;99.90
9810;DHT22;4944;52.514;13.192;2023-06-26T01:57:22;21.70;99.90
9810;DHT22;4944;52.514;13.192;2023-06-26T01:59:51;21.70;99.90
9810;DHT22;4944;52.514;13.192;2023-06-26T02:02:19;21.70;99.90
9810;DHT22;4944;52.514;13.192;2023-06-26T02:04:45;21.70;99.90
9810;DHT22;4944;52.514;13.192;2023-06-26T02:07:14;21.70;99.90
9810;DHT22;4944;52.514;13.192;2023-06-26T02:09:41;21.60;99.90
9810;DHT22;4944;52.514;13.192;2023-06-26T02:12:08;21.60;99.90
9810;DHT22;4944;52.514;13.192;2023-06-26T02:14:39;21.60;99.90
9810;DHT22;4944;52.514;13.192;2023-06-26T02:17:06;21.50;99.90
9810;DHT22;4944;52.514;13.192;2023-06-26T02:19:34;21.60;99.90
9810;DHT22;4944;52.514;13.192;2023-06-26T02:22:01;21.50;99.90
9810;DHT22;4944;52.514;13.192;2023-06-26T02:24:28;21.50;99.90
9810;DHT22;4944;52.514;13.192;2023-06-26T02:26:56;21.50;99.90
9810;DHT22;4944;52.514;13.192;2023-06-26T02:29:23;21.50;99.90
9810;DHT22;4944;52.514;13.192;2023-06-26T02:31:51;21.50;99.90
9810;DHT22;4944;52.514;13.192;2023-06-26T02:34:18;21.50;99.90
9810;DHT22;4944;52.514;13.192;2023-06-26T02:36:45;21.50;99.90
9810;DHT22;4944;52.514;13.192;2023-06-26T02:39:12;21.50;99.90
9810;DHT22;4944;52.514;13.192;2023-06-26T02:41:39;21.50;99.90
9810;DHT22;4944;52.514;13.192;2023-06-26T02:44:06;21.50;99.90
9810;DHT22;4944;52.514;13.192;2023-06-26T02:46:33;21.50;99.90
9810;DHT22;4944;52.514;13.192;2023-06-26T02:49:01;21.40;99.90
9810;DHT22;4944;52.514;13.192;2023-06-26T02:51:28;21.40;99.90
9810;DHT22;4944;52.514;13.192;2023-06-26T02:53:57;21.40;99.90
9810;DHT22;4944;52.514;13.192;2023-06-26T02:56:24;21.40;99.90
9810;DHT22;4944;52.514;13.192;2023-06-26T02:58:54;21.40;99.90
9810;DHT22;4944;52.514;13.192;2023-06-26T03:01:21;21.40;99.90
9810;DHT22;4944;52.514;13.192;2023-06-26T03:03:48;21.40;99.90
9810;DHT22;4944;52.514;13.192;2023-06-26T03:06:16;21.40;99.90
9810;DHT22;4944;52.514;13.192;2023-06-26T03:08:43;21.40;99.90
9810;DHT22;4944;52.514;13.192;2023-06-26T03:11:10;21.40;99.90
9810;DHT22;4944;52.514;13.192;2023-06-26T03:13:37;21.40;99.90
9810;DHT22;4944;52.514;13.192;2023-06-26T03:16:04;21.40;99.90
9810;DHT22;4944;52.514;13.192;2023-06-26T03:18:31;21.40;99.90
9810;DHT22;4944;52.514;13.192;2023-06-26T03:20:58;21.40;99.90
9810;DHT22;4944;52.514;13.192;2023-06-26T03:23:27;21.50;99.90
9810;DHT22;4944;52.514;13.192;2023-06-26T03:25:54;21.50;99.90
9810;DHT22;4944;52.514;13.192;2023-06-26T03:28:21;21.50;99.90
9810;DHT22;4944;52.514;13.192;2023-06-26T03:30:48;21.60;99.90
9810;DHT22;4944;52.514;13.192;2023-06-26T03:33:15;21.60;99.90
9810;DHT22;4944;52.514;13.192;2023-06-26T03:35:42;21.60;99.90
9810;DHT22;4944;52.514;13.192;2023-06-26T03:38:08;21.70;99.90
9810;DHT22;4944;52.514;13.192;2023-06-26T03:40:37;21.70;99.90
9810;DHT22;4944;52.514;13.192;2023-06-26T03:43:03;21.80;99.90
9810;DHT22;4944;52.514;13.192;2023-06-26T03:45:30;21.80;99.90
9810;DHT22;4944;52.514;13.192;2023-06-26T03:47:57;21.80;99.90
9810;DHT22;4944;52.514;13.192;2023-06-26T03:50:24;21.80;99.90
9810;DHT22;4944;52.514;13.192;2023-06-26T03:52:51;21.80;99.90
9810;DHT22;4944;52.514;13.192;2023-06-26T03:55:20;21.80;99.90
9810;DHT22;4944;52.514;13.192;2023-06-26T03:57:49;21.80;99.90
9810;DHT22;4944;52.514;13.192;2023-06-26T04:00:17;21.80;99.90
9810;DHT22;4944;52.514;13.192;2023-06-26T04:02:43;21.80;99.90
9810;DHT22;4944;52.514;13.192;2023-06-26T04:05:11;21.80;99.90
9810;DHT22;4944;52.514;13.192;2023-06-26T04:07:37;21.80;99.90
9810;DHT22;4944;52.514;13.192;2023-06-26T04:10:05;21.80;99.90
9810;DHT22;4944;52.514;13.192;2023-06-26T04:12:32;21.80;99.90
9810;DHT22;4944;52.514;13.192;2023-06-26T04:15:00;21.80;99.90
9810;DHT22;4944;52.514;13.192;2023-06-26T04:17:28;21.80;99.90
9810;DHT22;4944;52.514;13.192;2023-06-26T04:19:55;21.80;99.90
9810;DHT22;4944;52.514;13.192;2023-06-26T04:22:21;21.80;99.90
9810;DHT22;4944;52.514;13.192;2023-06-26T04:24:48;21.80;99.90
9810;DHT22;4944;52.514;13.192;2023-06-26T04:27:15;21.90;99.90
9810;DHT22;4944;52.514;13.192;2023-06-26T04:29:43;21.80;99.90
9810;DHT22;4944;52.514;13.192;2023-06-26T04:32:11;21.80;99.90
9810;DHT22;4944;52.514;13.192;2023-06-26T04:34:38;21.90;99.90
9810;DHT22;4944;52.514;13.192;2023-06-26T04:37:06;21.90;99.90
9810;DHT22;4944;52.514;13.192;2023-06-26T04:39:35;21.90;99.90
9810;DHT22;4944;52.514;13.192;2023-06-26T04:42:04;21.90;99.90
9810;DHT22;4944;52.514;13.192;2023-06-26T04:44:31;21.90;99.90
9810;DHT22;4944;52.514;13.192;2023-06-26T04:46:58;22.00;99.90
9810;DHT22;4944;52.514;13.192;2023-06-26T04:49:26;22.00;99.90
9810;DHT22;4944;52.514;13.192;2023-06-26T04:51:54;22.00;99.90
9810;DHT22;4944;52.514;13.192;2023-06-26T04:54:21;22.10;99.90
9810;DHT22;4944;52.514;13.192;2023-06-26T04:56:48;22.10;99.90
9810;DHT22;4944;52.514;13.192;2023-06-26T04:59:15;22.10;99.90
9810;DHT22;4944;52.514;13.192;2023-06-26T05:01:42;22.20;99.90
9810;DHT22;4944;52.514;13.192;2023-06-26T05:04:09;22.10;99.90
9810;DHT22;4944;52.514;13.192;2023-06-26T05:06:38;22.10;99.90
9810;DHT22;4944;52.514;13.192;2023-06-26T05:09:05;22.10;99.90
9810;DHT22;4944;52.514;13.192;2023-06-26T05:11:31;22.10;99.90
9810;DHT22;4944;52.514;13.192;2023-06-26T05:13:58;22.10;99.90
9810;DHT22;4944;52.514;13.192;2023-06-26T05:16:25;22.10;99.90
9810;DHT22;4944;52.514;13.192;2023-06-26T05:18:52;22.10;99.90
9810;DHT22;4944;52.514;13.192;2023-06-26T05:21:20;22.10;99.90
9810;DHT22;4944;52.514;13.192;2023-06-26T05:23:49;22.10;99.90
9810;DHT22;4944;52.514;13.192;2023-06-26T05:26:18;22.10;99.90
9810;DHT22;4944;52.514;13.192;2023-06-26T05:28:45;22.10;99.90
9810;DHT22;4944;52.514;13.192;2023-06-26T05:31:14;22.10;99.90
9810;DHT22;4944;52.514;13.192;2023-06-26T05:33:43;22.10;99.90
9810;DHT22;4944;52.514;13.192;2023-06-26T05:36:12;22.10;99.90
9810;DHT22;4944;52.514;13.192;2023-06-26T05:38:40;22.10;99.90
9810;DHT22;4944;52.514;13.192;2023-06-26T05:41:09;22.10;99.90
9810;DHT22;4944;52.514;13.192;2023-06-26T05:43:36;22.10;99.90
9810;DHT22;4944;52.514;13.192;2023-06-26T05:46:03;22.20;99.90
9810;DHT22;4944;52.514;13.192;2023-06-26T05:48:30;22.10;99.90
9810;DHT22;4944;52.514;13.192;2023-06-26T05:50:57;22.20;99.90
9810;DHT22;4944;52.514;13.192;2023-06-26T05:53:25;22.20;99.90
9810;DHT22;4944;52.514;13.192;2023-06-26T05:55:52;22.20;99.90
9810;DHT22;4944;52.514;13.192;2023-06-26T05:58:21;22.20;99.90
9810;DHT22;4944;52.514;13.192;2023-06-26T06:00:50;22.20;99.90
9810;DHT22;4944;52.514;13.192;2023-06-26T06:03:17;22.20;99.90
9810;DHT22;4944;52.514;13.192;2023-06-26T06:05:44;22.30;99.90
9810;DHT22;4944;52.514;13.192;2023-06-26T06:08:10;22.30;99.90
9810;DHT22;4944;52.514;13.192;2023-06-26T06:10:38;22.30;99.90
9810;DHT22;4944;52.514;13.192;2023-06-26T06:13:05;22.30;99.90
9810;DHT22;4944;52.514;13.192;2023-06-26T06:15:33;22.40;99.90
9810;DHT22;4944;52.514;13.192;2023-06-26T06:18:00;22.40;99.90
9810;DHT22;4944;52.514;13.192;2023-06-26T06:20:27;22.40;99.90
9810;DHT22;4944;52.514;13.192;2023-06-26T06:22:53;22.50;99.90
9810;DHT22;4944;52.514;13.192;2023-06-26T06:25:20;22.50;99.90
9810;DHT22;4944;52.514;13.192;2023-06-26T06:27:47;22.50;99.90
9810;DHT22;4944;52.514;13.192;2023-06-26T06:30:14;22.50;99.90
9810;DHT22;4944;52.514;13.192;2023-06-26T06:32:43;22.50;99.90
9810;DHT22;4944;52.514;13.192;2023-06-26T06:35:10;22.50;99.90
9810;DHT22;4944;52.514;13.192;2023-06-26T06:37:37;22.60;99.90
9810;DHT22;4944;52.514;13.192;2023-06-26T06:40:05;22.60;99.90
9810;DHT22;4944;52.514;13.192;2023-06-26T06:42:32;22.60;99.90
9810;DHT22;4944;52.514;13.192;2023-06-26T06:45:01;22.70;99.90
9810;DHT22;4944;52.514;13.192;2023-06-26T06:47:29;22.70;99.90
9810;DHT22;4944;52.514;13.192;2023-06-26T06:49:58;22.80;99.90
9810;DHT22;4944;52.514;13.192;2023-06-26T06:52:29;22.80;99.90
9810;DHT22;4944;52.514;13.192;2023-06-26T06:54:57;22.80;99.90
9810;DHT22;4944;52.514;13.192;2023-06-26T06:57:25;22.90;99.90
9810;DHT22;4944;52.514;13.192;2023-06-26T06:59:52;22.90;99.90
9810;DHT22;4944;52.514;13.192;2023-06-26T07:02:19;22.90;99.90
9810;DHT22;4944;52.514;13.192;2023-06-26T07:04:46;23.00;99.90
9810;DHT22;4944;52.514;13.192;2023-06-26T07:07:17;23.00;99.90
9810;DHT22;4944;52.514;13.192;2023-06-26T07:09:46;23.10;99.90
9810;DHT22;4944;52.514;13.192;2023-06-26T07:12:13;23.10;99.90
9810;DHT22;4944;52.514;13.192;2023-06-26T07:14:40;23.10;99.90
9810;DHT22;4944;52.514;13.192;2023-06-26T07:17:06;23.20;99.90
9810;DHT22;4944;52.514;13.192;2023-06-26T07:19:34;23.20;99.90
9810;DHT22;4944;52.514;13.192;2023-06-26T07:22:01;23.20;99.90
9810;DHT22;4944;52.514;13.192;2023-06-26T07:24:29;23.30;99.90
9810;DHT22;4944;52.514;13.192;2023-06-26T07:26:56;23.30;99.90
9810;DHT22;4944;52.514;13.192;2023-06-26T07:29:22;23.30;99.90
9810;DHT22;4944;52.514;13.192;2023-06-26T07:31:49;23.40;99.90
9810;DHT22;4944;52.514;13.192;2023-06-26T07:34:16;23.50;99.90
9810;DHT22;4944;52.514;13.192;2023-06-26T07:36:43;23.50;99.90
9810;DHT22;4944;52.514;13.192;2023-06-26T07:39:10;23.50;99.90
9810;DHT22;4944;52.514;13.192;2023-06-26T07:41:38;23.50;99.90
9810;DHT22;4944;52.514;13.192;2023-06-26T07:44:05;23.60;99.90
9810;DHT22;4944;52.514;13.192;2023-06-26T07:46:35;23.60;99.90
9810;DHT22;4944;52.514;13.192;2023-06-26T07:49:02;23.60;99.90
9810;DHT22;4944;52.514;13.192;2023-06-26T07:51:29;23.60;99.90
9810;DHT22;4944;52.514;13.192;2023-06-26T07:53:59;23.60;99.90
9810;DHT22;4944;52.514;13.192;2023-06-26T07:56:25;23.70;99.90
9810;DHT22;4944;52.514;13.192;2023-06-26T07:58:54;23.70;99.90
9810;DHT22;4944;52.514;13.192;2023-06-26T08:01:23;23.70;99.90
9810;DHT22;4944;52.514;13.192;2023-06-26T08:03:50;23.80;99.90
9810;DHT22;4944;52.514;13.192;2023-06-26T08:06:17;23.80;99.90
9810;DHT22;4944;52.514;13.192;2023-06-26T08:08:44;23.80;99.90
9810;DHT22;4944;52.514;13.192;2023-06-26T08:11:11;23.80;99.90
9810;DHT22;4944;52.514;13.192;2023-06-26T08:13:38;23.90;99.90
9810;DHT22;4944;52.514;13.192;2023-06-26T08:16:06;23.90;99.90
9810;DHT22;4944;52.514;13.192;2023-06-26T08:18:33;23.90;99.90
9810;DHT22;4944;52.514;13.192;2023-06-26T08:21:00;23.90;99.90
9810;DHT22;4944;52.514;13.192;2023-06-26T08:23:29;24.00;99.90
9810;DHT22;4944;52.514;13.192;2023-06-26T08:25:56;24.00;99.90
9810;DHT22;4944;52.514;13.192;2023-06-26T08:28:24;24.20;99.90
9810;DHT22;4944;52.514;13.192;2023-06-26T08:30:51;24.20;99.90
9810;DHT22;4944;52.514;13.192;2023-06-26T08:33:19;24.30;99.90
9810;DHT22;4944;52.514;13.192;2023-06-26T08:35:46;24.30;99.90
9810;DHT22;4944;52.514;13.192;2023-06-26T08:38:13;24.30;99.90
9810;DHT22;4944;52.514;13.192;2023-06-26T08:40:40;24.30;99.90
9810;DHT22;4944;52.514;13.192;2023-06-26T08:43:07;24.40;99.90
9810;DHT22;4944;52.514;13.192;2023-06-26T08:45:34;24.40;99.90
9810;DHT22;4944;52.514;13.192;2023-06-26T08:48:01;24.40;99.90
9810;DHT22;4944;52.514;13.192;2023-06-26T08:50:34;24.50;99.90
9810;DHT22;4944;52.514;13.192;2023-06-26T08:53:04;24.50;99.90
9810;DHT22;4944;52.514;13.192;2023-06-26T08:55:38;24.50;99.90
9810;DHT22;4944;52.514;13.192;2023-06-26T08:58:07;24.60;99.90
9810;DHT22;4944;52.514;13.192;2023-06-26T09:00:35;24.60;99.90
9810;DHT22;4944;52.514;13.192;2023-06-26T09:03:03;24.60;99.90
9810;DHT22;4944;52.514;13.192;2023-06-26T09:05:32;24.80;99.90
9810;DHT22;4944;52.514;13.192;2023-06-26T09:07:59;24.90;99.90
9810;DHT22;4944;52.514;13.192;2023-06-26T09:10:26;25.00;99.90
9810;DHT22;4944;52.514;13.192;2023-06-26T09:12:55;24.90;99.90
9810;DHT22;4944;52.514;13.192;2023-06-26T09:15:23;25.00;99.90
9810;DHT22;4944;52.514;13.192;2023-06-26T09:17:56;25.00;99.90
9810;DHT22;4944;52.514;13.192;2023-06-26T09:20:23;25.10;99.90
9810;DHT22;4944;52.514;13.192;2023-06-26T09:22:55;25.20;99.90
9810;DHT22;4944;52.514;13.192;2023-06-26T09:25:22;25.20;99.90
9810;DHT22;4944;52.514;13.192;2023-06-26T09:27:49;25.20;99.90
9810;DHT22;4944;52.514;13.192;2023-06-26T09:30:17;25.20;99.90
9810;DHT22;4944;52.514;13.192;2023-06-26T09:32:45;25.30;99.90
9810;DHT22;4944;52.514;13.192;2023-06-26T09:35:12;25.40;99.90
9810;DHT22;4944;52.514;13.192;2023-06-26T09:37:39;25.40;99.90
9810;DHT22;4944;52.514;13.192;2023-06-26T09:40:09;25.40;99.90
9810;DHT22;4944;52.514;13.192;2023-06-26T09:42:37;25.50;99.90
9810;DHT22;4944;52.514;13.192;2023-06-26T09:45:04;25.60;99.90
9810;DHT22;4944;52.514;13.192;2023-06-26T09:47:33;25.60;99.90
9810;DHT22;4944;52.514;13.192;2023-06-26T09:50:02;25.70;99.90
9810;DHT22;4944;52.514;13.192;2023-06-26T09:52:31;25.80;99.90
9810;DHT22;4944;52.514;13.192;2023-06-26T09:55:12;25.80;99.90
9810;DHT22;4944;52.514;13.192;2023-06-26T09:57:39;25.90;99.90
9810;DHT22;4944;52.514;13.192;2023-06-26T10:00:07;26.00;99.90
9810;DHT22;4944;52.514;13.192;2023-06-26T10:02:35;26.10;99.90
9810;DHT22;4944;52.514;13.192;2023-06-26T10:05:02;26.10;99.90
9810;DHT22;4944;52.514;13.192;2023-06-26T10:07:29;26.20;99.90
9810;DHT22;4944;52.514;13.192;2023-06-26T10:09:56;26.30;99.90
9810;DHT22;4944;52.514;13.192;2023-06-26T10:12:27;26.40;99.90
9810;DHT22;4944;52.514;13.192;2023-06-26T10:14:56;26.40;99.90
9810;DHT22;4944;52.514;13.192;2023-06-26T10:17:25;26.40;99.90
9810;DHT22;4944;52.514;13.192;2023-06-26T10:19:53;26.50;99.90
9810;DHT22;4944;52.514;13.192;2023-06-26T10:22:25;26.50;99.90
9810;DHT22;4944;52.514;13.192;2023-06-26T10:24:55;26.60;99.90
9810;DHT22;4944;52.514;13.192;2023-06-26T10:27:27;26.70;99.90
9810;DHT22;4944;52.514;13.192;2023-06-26T10:29:58;26.80;99.90
9810;DHT22;4944;52.514;13.192;2023-06-26T10:32:27;27.00;99.90
9810;DHT22;4944;52.514;13.192;2023-06-26T10:34:55;27.10;99.90
9810;DHT22;4944;52.514;13.192;2023-06-26T10:37:40;27.30;99.90
9810;DHT22;4944;52.514;13.192;2023-06-26T10:40:08;27.40;99.90
9810;DHT22;4944;52.514;13.192;2023-06-26T10:42:37;27.50;99.90
9810;DHT22;4944;52.514;13.192;2023-06-26T10:45:13;27.60;99.90
9810;DHT22;4944;52.514;13.192;2023-06-26T10:47:42;27.80;99.90
9810;DHT22;4944;52.514;13.192;2023-06-26T10:50:24;27.90;99.90
9810;DHT22;4944;52.514;13.192;2023-06-26T10:53:11;28.00;99.90
9810;DHT22;4944;52.514;13.192;2023-06-26T10:55:42;28.10;99.90
9810;DHT22;4944;52.514;13.192;2023-06-26T10:58:33;28.30;99.90
9810;DHT22;4944;52.514;13.192;2023-06-26T11:01:23;28.40;99.90
9810;DHT22;4944;52.514;13.192;2023-06-26T11:04:03;28.60;99.90
9810;DHT22;4944;52.514;13.192;2023-06-26T11:06:31;28.80;99.90
9810;DHT22;4944;52.514;13.192;2023-06-26T11:09:01;29.00;99.90
9810;DHT22;4944;52.514;13.192;2023-06-26T11:11:57;29.10;99.90
9810;DHT22;4944;52.514;13.192;2023-06-26T11:14:35;29.20;99.90
9810;DHT22;4944;52.514;13.192;2023-06-26T11:17:03;29.40;99.90
9810;DHT22;4944;52.514;13.192;2023-06-26T11:19:31;29.60;99.90
9810;DHT22;4944;52.514;13.192;2023-06-26T11:21:59;29.80;99.90
9810;DHT22;4944;52.514;13.192;2023-06-26T11:24:26;29.90;99.90
9810;DHT22;4944;52.514;13.192;2023-06-26T11:27:00;30.00;99.70
9810;DHT22;4944;52.514;13.192;2023-06-26T11:29:28;30.00;99.90
9810;DHT22;4944;52.514;13.192;2023-06-26T11:32:04;30.20;99.90
9810;DHT22;4944;52.514;13.192;2023-06-26T11:34:34;30.30;99.60
9810;DHT22;4944;52.514;13.192;2023-06-26T11:37:03;30.40;99.70
9810;DHT22;4944;52.514;13.192;2023-06-26T11:39:30;30.50;99.50
9810;DHT22;4944;52.514;13.192;2023-06-26T11:41:58;30.50;99.90
9810;DHT22;4944;52.514;13.192;2023-06-26T11:44:29;30.70;98.40
9810;DHT22;4944;52.514;13.192;2023-06-26T11:46:57;30.80;98.10
9810;DHT22;4944;52.514;13.192;2023-06-26T11:49:25;30.90;97.80
9810;DHT22;4944;52.514;13.192;2023-06-26T11:51:53;31.10;97.50
9810;DHT22;4944;52.514;13.192;2023-06-26T11:54:25;31.30;97.90
9810;DHT22;4944;52.514;13.192;2023-06-26T11:56:53;31.50;97.60
9810;DHT22;4944;52.514;13.192;2023-06-26T11:59:22;31.50;97.20
9810;DHT22;4944;52.514;13.192;2023-06-26T12:01:50;31.60;97.70
9810;DHT22;4944;52.514;13.192;2023-06-26T12:04:17;31.70;97.20
9810;DHT22;4944;52.514;13.192;2023-06-26T12:06:48;31.80;97.20
9810;DHT22;4944;52.514;13.192;2023-06-26T12:09:18;31.90;96.10
9810;DHT22;4944;52.514;13.192;2023-06-26T12:11:47;32.00;96.20
9810;DHT22;4944;52.514;13.192;2023-06-26T12:14:15;32.00;97.00
9810;DHT22;4944;52.514;13.192;2023-06-26T12:16:43;32.20;96.70
9810;DHT22;4944;52.514;13.192;2023-06-26T12:19:10;32.30;96.40
9810;DHT22;4944;52.514;13.192;2023-06-26T12:21:48;32.40;96.50
9810;DHT22;4944;52.514;13.192;2023-06-26T12:24:20;32.50;97.10
9810;DHT22;4944;52.514;13.192;2023-06-26T12:26:50;32.60;97.10
9810;DHT22;4944;52.514;13.192;2023-06-26T12:29:19;32.80;95.90
9810;DHT22;4944;52.514;13.192;2023-06-26T12:31:52;32.80;95.60
9810;DHT22;4944;52.514;13.192;2023-06-26T12:34:20;32.90;95.20
9810;DHT22;4944;52.514;13.192;2023-06-26T12:36:49;33.10;95.80
9810;DHT22;4944;52.514;13.192;2023-06-26T12:39:17;33.10;95.40
9810;DHT22;4944;52.514;13.192;2023-06-26T12:41:48;33.10;96.00
9810;DHT22;4944;52.514;13.192;2023-06-26T12:44:19;33.20;95.10
9810;DHT22;4944;52.514;13.192;2023-06-26T12:46:47;33.40;94.80
9810;DHT22;4944;52.514;13.192;2023-06-26T12:49:15;33.50;95.10
9810;DHT22;4944;52.514;13.192;2023-06-26T12:51:42;33.40;94.60
9810;DHT22;4944;52.514;13.192;2023-06-26T12:54:10;33.10;94.80
9810;DHT22;4944;52.514;13.192;2023-06-26T12:56:37;32.90;94.70
9810;DHT22;4944;52.514;13.192;2023-06-26T12:59:04;32.60;95.50
9810;DHT22;4944;52.514;13.192;2023-06-26T13:01:31;32.30;95.80
9810;DHT22;4944;52.514;13.192;2023-06-26T13:03:58;32.00;96.50
9810;DHT22;4944;52.514;13.192;2023-06-26T13:06:25;31.70;97.60
9810;DHT22;4944;52.514;13.192;2023-06-26T13:08:52;31.50;98.60
9810;DHT22;4944;52.514;13.192;2023-06-26T13:11:20;31.20;98.80
9810;DHT22;4944;52.514;13.192;2023-06-26T13:13:48;30.90;98.40
9810;DHT22;4944;52.514;13.192;2023-06-26T13:16:15;30.70;99.10
9810;DHT22;4944;52.514;13.192;2023-06-26T13:18:44;30.60;99.10
9810;DHT22;4944;52.514;13.192;2023-06-26T13:21:11;30.40;98.90
9810;DHT22;4944;52.514;13.192;2023-06-26T13:23:38;30.20;99.20
9810;DHT22;4944;52.514;13.192;2023-06-26T13:26:05;30.10;99.90
9810;DHT22;4944;52.514;13.192;2023-06-26T13:28:33;30.00;99.90
9810;DHT22;4944;52.514;13.192;2023-06-26T13:31:00;29.90;99.90
9810;DHT22;4944;52.514;13.192;2023-06-26T13:33:27;29.80;99.90
9810;DHT22;4944;52.514;13.192;2023-06-26T13:35:54;29.80;99.80
9810;DHT22;4944;52.514;13.192;2023-06-26T13:38:21;29.70;99.90
9810;DHT22;4944;52.514;13.192;2023-06-26T13:40:51;29.60;99.90
9810;DHT22;4944;52.514;13.192;2023-06-26T13:43:18;29.60;99.60
9810;DHT22;4944;52.514;13.192;2023-06-26T13:45:46;29.50;99.40
9810;DHT22;4944;52.514;13.192;2023-06-26T13:48:13;29.40;99.40
9810;DHT22;4944;52.514;13.192;2023-06-26T13:50:40;29.40;99.30
9810;DHT22;4944;52.514;13.192;2023-06-26T13:53:07;29.30;99.60
9810;DHT22;4944;52.514;13.192;2023-06-26T13:55:34;29.30;99.90
9810;DHT22;4944;52.514;13.192;2023-06-26T13:58:03;29.20;99.90
9810;DHT22;4944;52.514;13.192;2023-06-26T14:00:31;29.10;99.70
9810;DHT22;4944;52.514;13.192;2023-06-26T14:03:00;28.60;99.90
9810;DHT22;4944;52.514;13.192;2023-06-26T14:05:28;28.40;99.90
9810;DHT22;4944;52.514;13.192;2023-06-26T14:07:55;28.20;99.90
9810;DHT22;4944;52.514;13.192;2023-06-26T14:10:23;27.10;99.90
9810;DHT22;4944;52.514;13.192;2023-06-26T14:12:50;24.60;99.90
9810;DHT22;4944;52.514;13.192;2023-06-26T14:15:17;23.90;99.90
9810;DHT22;4944;52.514;13.192;2023-06-26T14:17:44;23.80;99.90
9810;DHT22;4944;52.514;13.192;2023-06-26T14:20:14;23.60;99.90
9810;DHT22;4944;52.514;13.192;2023-06-26T14:22:42;23.50;99.90
9810;DHT22;4944;52.514;13.192;2023-06-26T14:25:13;22.70;99.90
9810;DHT22;4944;52.514;13.192;2023-06-26T14:27:40;21.00;99.90
9810;DHT22;4944;52.514;13.192;2023-06-26T14:30:08;20.70;99.90
9810;DHT22;4944;52.514;13.192;2023-06-26T14:32:35;21.00;99.90
9810;DHT22;4944;52.514;13.192;2023-06-26T14:35:02;20.70;99.90
9810;DHT22;4944;52.514;13.192;2023-06-26T14:37:31;20.70;99.90
9810;DHT22;4944;52.514;13.192;2023-06-26T14:39:58;20.90;99.90
9810;DHT22;4944;52.514;13.192;2023-06-26T14:42:25;20.80;99.90
9810;DHT22;4944;52.514;13.192;2023-06-26T14:44:52;20.90;99.90
9810;DHT22;4944;52.514;13.192;2023-06-26T14:47:19;21.00;99.90
9810;DHT22;4944;52.514;13.192;2023-06-26T14:49:46;20.90;99.90
9810;DHT22;4944;52.514;13.192;2023-06-26T14:52:13;20.20;99.90
9810;DHT22;4944;52.514;13.192;2023-06-26T14:54:41;19.70;99.90
9810;DHT22;4944;52.514;13.192;2023-06-26T14:57:08;19.90;99.90
9810;DHT22;4944;52.514;13.192;2023-06-26T14:59:36;20.10;99.90
9810;DHT22;4944;52.514;13.192;2023-06-26T15:02:03;20.40;99.90
9810;DHT22;4944;52.514;13.192;2023-06-26T15:04:31;20.60;99.90
9810;DHT22;4944;52.514;13.192;2023-06-26T15:06:58;20.70;99.90
9810;DHT22;4944;52.514;13.192;2023-06-26T15:09:25;21.10;99.90
9810;DHT22;4944;52.514;13.192;2023-06-26T15:11:53;21.10;99.90
9810;DHT22;4944;52.514;13.192;2023-06-26T15:14:20;21.40;99.90
9810;DHT22;4944;52.514;13.192;2023-06-26T15:16:47;21.60;99.90
9810;DHT22;4944;52.514;13.192;2023-06-26T15:19:14;21.60;99.90
9810;DHT22;4944;52.514;13.192;2023-06-26T15:21:41;21.80;99.90
9810;DHT22;4944;52.514;13.192;2023-06-26T15:24:08;22.00;99.90
9810;DHT22;4944;52.514;13.192;2023-06-26T15:26:35;21.80;99.90
9810;DHT22;4944;52.514;13.192;2023-06-26T15:29:03;21.80;99.90
9810;DHT22;4944;52.514;13.192;2023-06-26T15:31:30;22.00;99.90
9810;DHT22;4944;52.514;13.192;2023-06-26T15:33:57;22.10;99.90
9810;DHT22;4944;52.514;13.192;2023-06-26T15:36:24;22.40;99.90
9810;DHT22;4944;52.514;13.192;2023-06-26T15:38:51;22.10;99.90
9810;DHT22;4944;52.514;13.192;2023-06-26T15:41:18;22.30;99.90
9810;DHT22;4944;52.514;13.192;2023-06-26T15:43:44;22.40;99.90
9810;DHT22;4944;52.514;13.192;2023-06-26T15:46:13;22.40;99.90
9810;DHT22;4944;52.514;13.192;2023-06-26T15:48:40;22.40;99.90
9810;DHT22;4944;52.514;13.192;2023-06-26T15:51:06;22.60;99.90